Time,TemperatureF,DewpointF,PressureIn,WindDirection,WindDirectionDegrees,WindSpeedMPH,WindSpeedGustMPH,Humidity,HourlyPrecipIn,Conditions,Clouds,dailyrainin,SoftwareType,DateUTC
2013-02-07 00:00:00,20.3,5.7,30.36,NNW,337,5.8,5.8,52,-99.99,,,-99.99,tws,2013-02-07 05:00:00,
2013-02-07 00:01:00,20.3,5.6,30.36,North,360,7.7,7.7,52,-99.99,,,-99.99,tws,2013-02-07 05:01:00,
2013-02-07 00:02:00,20.0,5.9,30.36,WNW,292,5.7,5.7,54,-99.99,,,-99.99,tws,2013-02-07 05:02:00,
2013-02-07 00:08:00,20.2,5.8,30.36,NNW,337,6.6,6.6,53,-99.99,,,-99.99,tws,2013-02-07 05:08:00,
2013-02-07 00:13:00,20.1,5.9,30.36,NNW,337,5.2,5.2,53,-99.99,,,-99.99,tws,2013-02-07 05:13:00,
2013-02-07 00:18:00,19.9,5.8,30.36,West,270,6.0,6.0,54,-99.99,,,-99.99,tws,2013-02-07 05:18:00,
2013-02-07 00:23:00,19.9,6.1,30.36,WNW,292,3.2,3.2,54,-99.99,,,-99.99,tws,2013-02-07 05:23:00,
2013-02-07 00:28:00,19.9,6.1,30.36,NW,315,3.4,3.4,54,-99.99,,,-99.99,tws,2013-02-07 05:28:00,
2013-02-07 00:33:00,19.9,5.7,30.36,West,270,2.7,2.7,53,-99.99,,,-99.99,tws,2013-02-07 05:33:00,
2013-02-07 00:39:00,19.8,6.0,30.36,NW,315,5.8,5.8,54,-99.99,,,-99.99,tws,2013-02-07 05:39:00,
2013-02-07 00:44:00,19.8,5.9,30.36,NNW,337,4.1,4.1,54,-99.99,,,-99.99,tws,2013-02-07 05:44:00,
2013-02-07 00:50:00,19.8,6.2,30.36,North,0,7.7,7.7,55,-99.99,,,-99.99,tws,2013-02-07 05:50:00,
2013-02-07 00:55:00,19.9,6.0,30.36,NNW,337,10.8,10.8,54,-99.99,,,-99.99,tws,2013-02-07 05:55:00,
2013-02-07 01:00:00,20.0,6.0,30.36,NNW,337,13.4,13.4,54,-99.99,,,-99.99,tws,2013-02-07 06:00:00,
2013-02-07 01:05:00,20.1,6.4,30.34,NNE,22,16.1,16.1,55,-99.99,,,-99.99,tws,2013-02-07 06:05:00,
2013-02-07 01:10:00,20.1,6.2,30.34,NW,315,19.7,19.7,54,-99.99,,,-99.99,tws,2013-02-07 06:10:00,
2013-02-07 01:15:00,20.1,6.3,30.34,North,360,14.5,14.5,54,-99.99,,,-99.99,tws,2013-02-07 06:15:00,
2013-02-07 01:20:00,19.9,6.5,30.34,NNE,22,15.7,15.7,55,-99.99,,,-99.99,tws,2013-02-07 06:20:00,
2013-02-07 01:25:00,19.9,6.6,30.34,North,360,15.7,15.7,56,-99.99,,,-99.99,tws,2013-02-07 06:25:00,
2013-02-07 01:30:00,20.0,6.8,30.34,North,360,13.5,13.5,56,-99.99,,,-99.99,tws,2013-02-07 06:30:00,
2013-02-07 01:35:00,20.1,6.7,30.34,NNE,22,19.9,19.9,55,-99.99,,,-99.99,tws,2013-02-07 06:35:00,
2013-02-07 01:40:00,20.0,6.8,30.34,North,360,19.2,19.2,56,-99.99,,,-99.99,tws,2013-02-07 06:40:00,
2013-02-07 01:45:00,20.0,6.9,30.35,NNE,22,16.0,16.0,56,-99.99,,,-99.99,tws,2013-02-07 06:45:00,
2013-02-07 01:50:00,20.2,6.7,30.36,North,360,18.8,18.8,55,-99.99,,,-99.99,tws,2013-02-07 06:50:00,
2013-02-07 01:55:00,20.2,7.0,30.36,NNW,337,14.4,14.4,56,-99.99,,,-99.99,tws,2013-02-07 06:55:00,
2013-02-07 02:00:00,20.0,6.9,30.37,NNW,337,13.8,13.8,56,-99.99,,,-99.99,tws,2013-02-07 07:00:00,
2013-02-07 02:05:00,20.0,6.8,30.37,North,0,18.4,18.4,56,-99.99,,,-99.99,tws,2013-02-07 07:05:00,
2013-02-07 02:10:00,20.0,6.9,30.37,NNE,22,14.3,14.3,56,-99.99,,,-99.99,tws,2013-02-07 07:10:00,
2013-02-07 02:15:00,20.0,6.6,30.36,North,360,13.6,13.6,55,-99.99,,,-99.99,tws,2013-02-07 07:15:00,
2013-02-07 02:20:00,19.8,6.5,30.37,North,360,17.1,17.1,56,-99.99,,,-99.99,tws,2013-02-07 07:20:00,
2013-02-07 02:25:00,19.6,6.8,30.37,NNW,337,11.5,11.5,57,-99.99,,,-99.99,tws,2013-02-07 07:25:00,
2013-02-07 02:30:00,19.6,6.7,30.37,North,360,16.6,16.6,56,-99.99,,,-99.99,tws,2013-02-07 07:30:00,
2013-02-07 02:35:00,19.4,7.1,30.39,North,360,9.0,9.0,58,-99.99,,,-99.99,tws,2013-02-07 07:35:00,
2013-02-07 02:40:00,19.3,6.6,30.39,North,360,8.4,8.4,57,-99.99,,,-99.99,tws,2013-02-07 07:40:00,
2013-02-07 02:45:00,19.3,6.9,30.39,NW,315,6.9,6.9,58,-99.99,,,-99.99,tws,2013-02-07 07:45:00,
2013-02-07 02:50:00,18.9,7.0,30.39,NNE,22,3.7,3.7,59,-99.99,,,-99.99,tws,2013-02-07 07:50:00,
2013-02-07 02:55:00,19.8,7.6,30.40,NNE,22,0.8,0.8,58,-99.99,,,-99.99,tws,2013-02-07 07:55:00,
2013-02-07 03:00:00,19.8,7.9,30.40,NNE,22,0.2,0.2,59,-99.99,,,-99.99,tws,2013-02-07 08:00:00,
2013-02-07 03:05:00,19.0,7.5,30.39,NE,45,4.1,4.1,60,-99.99,,,-99.99,tws,2013-02-07 08:05:00,
2013-02-07 03:10:00,18.9,7.3,30.39,NNE,22,3.4,3.4,60,-99.99,,,-99.99,tws,2013-02-07 08:10:00,
2013-02-07 03:15:00,19.0,7.7,30.39,NNE,22,2.3,2.3,61,-99.99,,,-99.99,tws,2013-02-07 08:15:00,
2013-02-07 03:20:00,18.9,7.6,30.39,NE,45,1.0,1.0,61,-99.99,,,-99.99,tws,2013-02-07 08:20:00,
2013-02-07 03:25:00,18.1,7.1,30.39,NE,45,3.7,3.7,62,-99.99,,,-99.99,tws,2013-02-07 08:25:00,
2013-02-07 03:30:00,18.0,7.3,30.39,NNE,22,6.3,6.3,62,-99.99,,,-99.99,tws,2013-02-07 08:30:00,
2013-02-07 03:35:00,17.7,7.2,30.40,NE,45,6.5,6.5,63,-99.99,,,-99.99,tws,2013-02-07 08:35:00,
2013-02-07 03:40:00,17.8,6.9,30.40,NE,45,9.3,9.3,62,-99.99,,,-99.99,tws,2013-02-07 08:40:00,
2013-02-07 03:45:00,17.5,6.6,30.40,NNE,22,9.6,9.6,62,-99.99,,,-99.99,tws,2013-02-07 08:45:00,
2013-02-07 03:50:00,18.3,7.4,30.40,NNE,22,4.7,4.7,62,-99.99,,,-99.99,tws,2013-02-07 08:50:00,
2013-02-07 03:55:00,18.7,7.5,30.39,NNE,22,0.1,0.1,61,-99.99,,,-99.99,tws,2013-02-07 08:55:00,
2013-02-07 04:00:00,18.9,7.5,30.40,NNE,22,0.4,0.4,60,-99.99,,,-99.99,tws,2013-02-07 09:00:00,
2013-02-07 04:05:00,18.9,7.7,30.40,North,0,0.0,0.0,61,-99.99,,,-99.99,tws,2013-02-07 09:05:00,
2013-02-07 04:10:00,18.4,7.9,30.40,North,360,0.0,0.0,63,-99.99,,,-99.99,tws,2013-02-07 09:10:00,
2013-02-07 04:15:00,17.6,6.9,30.40,NNW,337,0.0,0.0,62,-99.99,,,-99.99,tws,2013-02-07 09:15:00,
2013-02-07 04:20:00,17.5,6.7,30.41,West,270,0.0,0.0,62,-99.99,,,-99.99,tws,2013-02-07 09:20:00,
2013-02-07 04:25:00,18.2,7.3,30.40,West,270,0.0,0.0,62,-99.99,,,-99.99,tws,2013-02-07 09:25:00,
2013-02-07 04:30:00,19.0,8.4,30.40,West,270,0.0,0.0,63,-99.99,,,-99.99,tws,2013-02-07 09:30:00,
2013-02-07 04:35:00,17.0,7.5,30.41,West,270,0.0,0.0,66,-99.99,,,-99.99,tws,2013-02-07 09:35:00,
2013-02-07 04:40:00,17.4,7.5,30.41,East,90,0.0,0.0,65,-99.99,,,-99.99,tws,2013-02-07 09:40:00,
2013-02-07 04:45:00,17.4,7.3,30.41,NE,45,0.0,0.0,64,-99.99,,,-99.99,tws,2013-02-07 09:45:00,
2013-02-07 04:50:00,17.7,7.3,30.41,NE,45,0.0,0.0,63,-99.99,,,-99.99,tws,2013-02-07 09:50:00,
2013-02-07 04:55:00,18.3,7.6,30.41,ENE,67,0.0,0.0,62,-99.99,,,-99.99,tws,2013-02-07 09:55:00,
2013-02-07 05:00:00,17.4,7.4,30.41,ENE,67,0.0,0.0,64,-99.99,,,-99.99,tws,2013-02-07 10:00:00,
2013-02-07 05:05:00,15.7,7.1,30.41,ESE,112,0.0,0.0,68,-99.99,,,-99.99,tws,2013-02-07 10:05:00,
2013-02-07 05:10:00,15.8,7.1,30.41,SE,135,0.0,0.0,68,-99.99,,,-99.99,tws,2013-02-07 10:10:00,
2013-02-07 05:15:00,17.5,7.4,30.41,SE,135,0.0,0.0,64,-99.99,,,-99.99,tws,2013-02-07 10:15:00,
2013-02-07 05:20:00,18.0,7.1,30.42,SE,135,0.0,0.0,62,-99.99,,,-99.99,tws,2013-02-07 10:20:00,
2013-02-07 05:25:00,18.3,7.0,30.42,NNE,22,0.0,0.0,61,-99.99,,,-99.99,tws,2013-02-07 10:25:00,
2013-02-07 05:30:00,17.8,6.7,30.43,NE,45,0.0,0.0,61,-99.99,,,-99.99,tws,2013-02-07 10:30:00,
2013-02-07 05:35:00,18.1,6.6,30.43,NE,45,0.0,0.0,60,-99.99,,,-99.99,tws,2013-02-07 10:35:00,
2013-02-07 05:40:00,18.4,7.2,30.43,ENE,67,0.0,0.0,61,-99.99,,,-99.99,tws,2013-02-07 10:40:00,
2013-02-07 05:45:00,15.8,7.9,30.43,SE,135,1.4,1.4,70,-99.99,,,-99.99,tws,2013-02-07 10:45:00,
2013-02-07 05:50:00,15.8,8.1,30.43,SSE,157,2.6,2.6,71,-99.99,,,-99.99,tws,2013-02-07 10:50:00,
2013-02-07 05:55:00,16.4,8.0,30.43,SE,135,0.0,0.0,69,-99.99,,,-99.99,tws,2013-02-07 10:55:00,
2013-02-07 06:00:00,15.8,7.7,30.43,ESE,112,0.0,0.0,70,-99.99,,,-99.99,tws,2013-02-07 11:00:00,
2013-02-07 06:05:00,15.9,7.4,30.43,East,90,0.0,0.0,68,-99.99,,,-99.99,tws,2013-02-07 11:05:00,
2013-02-07 06:10:00,15.6,7.2,30.44,East,90,2.8,2.8,69,-99.99,,,-99.99,tws,2013-02-07 11:10:00,
2013-02-07 06:15:00,15.9,7.8,30.44,East,90,0.0,0.0,70,-99.99,,,-99.99,tws,2013-02-07 11:15:00,
2013-02-07 06:20:00,15.1,7.7,30.44,East,90,0.8,0.8,72,-99.99,,,-99.99,tws,2013-02-07 11:20:00,
2013-02-07 06:25:00,15.8,8.0,30.45,ESE,112,1.0,1.0,71,-99.99,,,-99.99,tws,2013-02-07 11:25:00,
2013-02-07 06:30:00,15.3,7.2,30.45,ENE,67,0.4,0.4,70,-99.99,,,-99.99,tws,2013-02-07 11:30:00,
2013-02-07 06:35:00,16.4,7.9,30.45,ENE,67,0.0,0.0,68,-99.99,,,-99.99,tws,2013-02-07 11:35:00,
2013-02-07 06:40:00,15.4,7.4,30.45,NE,45,0.0,0.0,70,-99.99,,,-99.99,tws,2013-02-07 11:40:00,
2013-02-07 06:45:00,15.8,8.5,30.45,SE,135,0.0,0.0,72,-99.99,,,-99.99,tws,2013-02-07 11:45:00,
2013-02-07 06:50:00,15.9,8.3,30.46,SSE,157,1.0,1.0,71,-99.99,,,-99.99,tws,2013-02-07 11:50:00,
2013-02-07 06:55:00,16.2,8.5,30.47,South,180,0.7,0.7,71,-99.99,,,-99.99,tws,2013-02-07 11:55:00,
2013-02-07 07:00:00,16.2,8.6,30.47,South,180,0.0,0.0,71,-99.99,,,-99.99,tws,2013-02-07 12:00:00,
2013-02-07 07:05:00,16.8,9.1,30.48,SSE,157,0.0,0.0,71,-99.99,,,-99.99,tws,2013-02-07 12:05:00,
2013-02-07 07:10:00,16.6,8.6,30.48,SSE,157,0.0,0.0,70,-99.99,,,-99.99,tws,2013-02-07 12:10:00,
2013-02-07 07:16:00,15.3,8.6,30.48,SSE,157,0.0,0.0,74,-99.99,,,-99.99,tws,2013-02-07 12:16:00,
2013-02-07 07:21:00,14.8,8.5,30.48,SSE,157,0.0,0.0,75,-99.99,,,-99.99,tws,2013-02-07 12:21:00,
2013-02-07 07:26:00,16.7,9.1,30.48,ESE,112,0.0,0.0,71,-99.99,,,-99.99,tws,2013-02-07 12:26:00,
2013-02-07 07:31:00,16.3,8.6,30.48,NE,45,0.0,0.0,71,-99.99,,,-99.99,tws,2013-02-07 12:31:00,
2013-02-07 07:36:00,17.4,9.1,30.49,ENE,67,0.0,0.0,69,-99.99,,,-99.99,tws,2013-02-07 12:36:00,
2013-02-07 07:41:00,17.5,10.3,30.50,SE,135,0.6,0.6,73,-99.99,,,-99.99,tws,2013-02-07 12:41:00,
2013-02-07 07:46:00,17.2,10.9,30.49,ENE,67,4.1,4.1,76,-99.99,,,-99.99,tws,2013-02-07 12:46:00,
2013-02-07 07:51:00,18.0,10.0,30.50,East,90,2.4,2.4,70,-99.99,,,-99.99,tws,2013-02-07 12:51:00,
2013-02-07 07:56:00,17.5,9.3,30.50,NE,45,4.3,4.3,70,-99.99,,,-99.99,tws,2013-02-07 12:56:00,
2013-02-07 08:01:00,18.4,9.8,30.50,East,90,0.5,0.5,68,-99.99,,,-99.99,tws,2013-02-07 13:01:00,
2013-02-07 08:06:00,18.3,9.1,30.50,NE,45,3.0,3.0,67,-99.99,,,-99.99,tws,2013-02-07 13:06:00,
2013-02-07 08:11:00,17.4,7.7,30.50,NNE,22,10.6,10.6,65,-99.99,,,-99.99,tws,2013-02-07 13:11:00,
2013-02-07 08:16:00,17.6,7.6,30.50,NNE,22,6.3,6.3,64,-99.99,,,-99.99,tws,2013-02-07 13:16:00,
2013-02-07 08:21:00,17.7,7.7,30.50,NE,45,6.5,6.5,64,-99.99,,,-99.99,tws,2013-02-07 13:21:00,
2013-02-07 08:27:00,18.2,8.3,30.50,NE,45,2.0,2.0,65,-99.99,,,-99.99,tws,2013-02-07 13:27:00,
2013-02-07 08:32:00,18.1,8.1,30.51,NNE,22,8.0,8.0,64,-99.99,,,-99.99,tws,2013-02-07 13:32:00,
2013-02-07 08:38:00,18.6,8.3,30.50,NE,45,4.4,4.4,63,-99.99,,,-99.99,tws,2013-02-07 13:38:00,
2013-02-07 08:43:00,19.3,8.6,30.51,NNE,22,4.8,4.8,62,-99.99,,,-99.99,tws,2013-02-07 13:43:00,
2013-02-07 08:49:00,18.7,7.9,30.51,NNE,22,11.8,11.8,62,-99.99,,,-99.99,tws,2013-02-07 13:49:00,
2013-02-07 08:54:00,19.3,8.4,30.51,NE,45,10.4,10.4,62,-99.99,,,-99.99,tws,2013-02-07 13:54:00,
2013-02-07 08:59:00,19.5,8.4,30.51,NNE,22,8.8,8.8,61,-99.99,,,-99.99,tws,2013-02-07 13:59:00,
2013-02-07 09:04:00,20.0,8.5,30.52,NNE,22,8.0,8.0,60,-99.99,,,-99.99,tws,2013-02-07 14:04:00,
2013-02-07 09:09:00,20.4,8.6,30.52,NE,45,2.0,2.0,59,-99.99,,,-99.99,tws,2013-02-07 14:09:00,
2013-02-07 09:14:00,22.1,10.1,30.52,NE,45,3.9,3.9,59,-99.99,,,-99.99,tws,2013-02-07 14:14:00,
2013-02-07 09:19:00,21.7,9.7,30.52,NNE,22,7.0,7.0,59,-99.99,,,-99.99,tws,2013-02-07 14:19:00,
2013-02-07 09:24:00,21.2,8.8,30.52,NE,45,7.9,7.9,58,-99.99,,,-99.99,tws,2013-02-07 14:24:00,
2013-02-07 09:29:00,20.4,7.9,30.52,ENE,67,11.9,11.9,57,-99.99,,,-99.99,tws,2013-02-07 14:29:00,
2013-02-07 09:34:00,21.0,8.5,30.52,NNE,22,11.5,11.5,58,-99.99,,,-99.99,tws,2013-02-07 14:34:00,
2013-02-07 09:39:00,20.8,8.3,30.51,ENE,67,14.1,14.1,58,-99.99,,,-99.99,tws,2013-02-07 14:39:00,
2013-02-07 09:44:00,21.7,9.1,30.51,NNE,22,8.6,8.6,58,-99.99,,,-99.99,tws,2013-02-07 14:44:00,
2013-02-07 09:49:00,22.2,8.9,30.51,NE,45,10.9,10.9,56,-99.99,,,-99.99,tws,2013-02-07 14:49:00,
2013-02-07 09:54:00,22.2,8.1,30.52,NNE,22,11.8,11.8,54,-99.99,,,-99.99,tws,2013-02-07 14:54:00,
2013-02-07 09:59:00,23.6,9.1,30.52,NE,45,9.7,9.7,53,-99.99,,,-99.99,tws,2013-02-07 14:59:00,
2013-02-07 10:04:00,23.1,8.6,30.52,SE,135,15.0,15.0,53,-99.99,,,-99.99,tws,2013-02-07 15:04:00,
2013-02-07 10:10:00,25.0,9.8,30.52,North,0,7.9,7.9,52,-99.99,,,-99.99,tws,2013-02-07 15:10:00,
2013-02-07 10:15:00,23.8,8.6,30.52,ENE,67,14.0,14.0,51,-99.99,,,-99.99,tws,2013-02-07 15:15:00,
2013-02-07 10:20:00,25.3,9.6,30.52,North,0,6.2,6.2,51,-99.99,,,-99.99,tws,2013-02-07 15:20:00,
2013-02-07 10:25:00,23.4,7.3,30.52,NE,45,19.0,19.0,49,-99.99,,,-99.99,tws,2013-02-07 15:25:00,
2013-02-07 10:30:00,24.6,8.2,30.52,NE,45,12.4,12.4,49,-99.99,,,-99.99,tws,2013-02-07 15:30:00,
2013-02-07 10:35:00,24.3,7.8,30.52,NE,45,14.2,14.2,49,-99.99,,,-99.99,tws,2013-02-07 15:35:00,
2013-02-07 10:40:00,24.4,7.8,30.52,NE,45,13.0,13.0,48,-99.99,,,-99.99,tws,2013-02-07 15:40:00,
2013-02-07 10:46:00,25.3,8.2,30.52,NNE,22,8.2,8.2,48,-99.99,,,-99.99,tws,2013-02-07 15:46:00,
2013-02-07 10:51:00,24.5,8.3,30.51,North,0,6.2,6.2,49,-99.99,,,-99.99,tws,2013-02-07 15:51:00,
2013-02-07 10:56:00,24.7,7.6,30.51,NE,45,11.8,11.8,47,-99.99,,,-99.99,tws,2013-02-07 15:56:00,
2013-02-07 11:01:00,26.8,9.7,30.51,NE,45,7.2,7.2,48,-99.99,,,-99.99,tws,2013-02-07 16:01:00,
2013-02-07 11:06:00,25.2,7.8,30.51,North,360,7.7,7.7,47,-99.99,,,-99.99,tws,2013-02-07 16:06:00,
2013-02-07 11:11:00,24.3,7.0,30.51,NNE,22,9.2,9.2,47,-99.99,,,-99.99,tws,2013-02-07 16:11:00,
2013-02-07 11:16:00,25.8,8.6,30.51,North,0,1.4,1.4,47,-99.99,,,-99.99,tws,2013-02-07 16:16:00,
2013-02-07 11:21:00,26.1,8.1,30.51,NNE,22,10.5,10.5,46,-99.99,,,-99.99,tws,2013-02-07 16:21:00,
2013-02-07 11:26:00,27.1,8.7,30.51,North,360,3.7,3.7,45,-99.99,,,-99.99,tws,2013-02-07 16:26:00,
2013-02-07 11:31:00,24.9,6.9,30.50,NW,315,2.3,2.3,45,-99.99,,,-99.99,tws,2013-02-07 16:31:00,
2013-02-07 11:36:00,26.5,7.9,30.50,NE,45,5.6,5.6,45,-99.99,,,-99.99,tws,2013-02-07 16:36:00,
2013-02-07 11:41:00,29.1,10.2,30.49,NNE,22,1.6,1.6,44,-99.99,,,-99.99,tws,2013-02-07 16:41:00,
2013-02-07 11:46:00,29.2,9.6,30.48,ESE,112,3.0,3.0,43,-99.99,,,-99.99,tws,2013-02-07 16:46:00,
2013-02-07 11:51:00,29.5,9.2,30.48,SE,135,5.7,5.7,42,-99.99,,,-99.99,tws,2013-02-07 16:51:00,
2013-02-07 11:56:00,31.7,10.9,30.48,ENE,67,1.7,1.7,41,-99.99,,,-99.99,tws,2013-02-07 16:56:00,
2013-02-07 12:01:00,28.4,8.5,30.48,North,360,5.8,5.8,42,-99.99,,,-99.99,tws,2013-02-07 17:01:00,
2013-02-07 12:06:00,27.4,8.6,30.48,NNE,22,6.9,6.9,44,-99.99,,,-99.99,tws,2013-02-07 17:06:00,
2013-02-07 12:11:00,27.0,7.7,30.48,NNE,22,7.5,7.5,43,-99.99,,,-99.99,tws,2013-02-07 17:11:00,
2013-02-07 12:16:00,27.9,8.3,30.48,North,0,5.1,5.1,43,-99.99,,,-99.99,tws,2013-02-07 17:16:00,
2013-02-07 12:21:00,30.0,10.1,30.48,North,0,0.6,0.6,42,-99.99,,,-99.99,tws,2013-02-07 17:21:00,
2013-02-07 12:26:00,33.0,11.4,30.48,NNE,22,2.1,2.1,40,-99.99,,,-99.99,tws,2013-02-07 17:26:00,
2013-02-07 12:31:00,33.0,11.3,30.48,NE,45,3.9,3.9,40,-99.99,,,-99.99,tws,2013-02-07 17:31:00,
2013-02-07 12:36:00,30.3,9.0,30.47,NNE,22,9.6,9.6,40,-99.99,,,-99.99,tws,2013-02-07 17:36:00,
2013-02-07 12:41:00,32.7,10.4,30.47,NE,45,7.0,7.0,39,-99.99,,,-99.99,tws,2013-02-07 17:41:00,
2013-02-07 12:46:00,31.2,9.0,30.46,North,360,10.9,10.9,39,-99.99,,,-99.99,tws,2013-02-07 17:46:00,
2013-02-07 12:51:00,29.9,8.4,30.47,West,270,8.5,8.5,40,-99.99,,,-99.99,tws,2013-02-07 17:51:00,
2013-02-07 12:56:00,35.5,11.6,30.47,East,90,3.9,3.9,36,-99.99,,,-99.99,tws,2013-02-07 17:56:00,
2013-02-07 13:01:00,30.8,8.4,30.46,NNW,337,8.2,8.2,38,-99.99,,,-99.99,tws,2013-02-07 18:01:00,
2013-02-07 13:06:00,31.5,9.2,30.46,NNE,22,3.7,3.7,39,-99.99,,,-99.99,tws,2013-02-07 18:06:00,
2013-02-07 13:11:00,32.1,9.3,30.47,NE,45,2.1,2.1,38,-99.99,,,-99.99,tws,2013-02-07 18:11:00,
2013-02-07 13:16:00,33.8,9.9,30.45,East,90,1.5,1.5,36,-99.99,,,-99.99,tws,2013-02-07 18:16:00,
2013-02-07 13:22:00,37.2,12.6,30.45,SE,135,8.7,8.7,35,-99.99,,,-99.99,tws,2013-02-07 18:22:00,
2013-02-07 13:27:00,37.4,12.6,30.45,SE,135,4.3,4.3,35,-99.99,,,-99.99,tws,2013-02-07 18:27:00,
2013-02-07 13:32:00,38.3,13.5,30.45,ENE,67,7.8,7.8,35,-99.99,,,-99.99,tws,2013-02-07 18:32:00,
2013-02-07 13:37:00,36.6,11.2,30.44,ENE,67,9.5,9.5,34,-99.99,,,-99.99,tws,2013-02-07 18:37:00,
2013-02-07 13:42:00,36.3,10.6,30.44,East,90,0.6,0.6,34,-99.99,,,-99.99,tws,2013-02-07 18:42:00,
2013-02-07 13:47:00,41.4,14.7,30.44,SE,135,7.2,7.2,33,-99.99,,,-99.99,tws,2013-02-07 18:47:00,
2013-02-07 13:52:00,38.4,12.6,30.43,SSE,157,5.7,5.7,34,-99.99,,,-99.99,tws,2013-02-07 18:52:00,
2013-02-07 13:57:00,40.7,14.3,30.43,North,0,0.8,0.8,33,-99.99,,,-99.99,tws,2013-02-07 18:57:00,
2013-02-07 14:02:00,35.2,10.9,30.43,North,360,4.0,4.0,36,-99.99,,,-99.99,tws,2013-02-07 19:02:00,
2013-02-07 14:07:00,37.9,12.4,30.43,ESE,112,9.8,9.8,34,-99.99,,,-99.99,tws,2013-02-07 19:07:00,
2013-02-07 14:12:00,37.8,11.6,30.43,NE,45,8.8,8.8,33,-99.99,,,-99.99,tws,2013-02-07 19:12:00,
2013-02-07 14:17:00,38.9,13.2,30.43,ENE,67,7.9,7.9,34,-99.99,,,-99.99,tws,2013-02-07 19:17:00,
2013-02-07 14:22:00,38.5,12.4,30.43,NNE,22,6.7,6.7,33,-99.99,,,-99.99,tws,2013-02-07 19:22:00,
2013-02-07 14:27:00,39.1,12.9,30.43,NNE,22,5.2,5.2,33,-99.99,,,-99.99,tws,2013-02-07 19:27:00,
2013-02-07 14:32:00,35.2,10.2,30.43,West,270,3.1,3.1,35,-99.99,,,-99.99,tws,2013-02-07 19:32:00,
2013-02-07 14:37:00,35.7,10.4,30.43,WNW,292,4.4,4.4,34,-99.99,,,-99.99,tws,2013-02-07 19:37:00,
2013-02-07 14:42:00,34.3,10.5,30.43,WNW,292,0.0,0.0,36,-99.99,,,-99.99,tws,2013-02-07 19:42:00,
2013-02-07 14:47:00,33.9,11.2,30.43,East,90,7.7,7.7,38,-99.99,,,-99.99,tws,2013-02-07 19:47:00,
2013-02-07 14:52:00,32.9,10.4,30.43,ENE,67,7.0,7.0,38,-99.99,,,-99.99,tws,2013-02-07 19:52:00,
2013-02-07 14:57:00,32.9,10.6,30.43,NNE,22,5.0,5.0,39,-99.99,,,-99.99,tws,2013-02-07 19:57:00,
2013-02-07 15:02:00,34.4,11.6,30.43,NE,45,1.1,1.1,38,-99.99,,,-99.99,tws,2013-02-07 20:02:00,
2013-02-07 15:07:00,33.7,10.7,30.43,NE,45,0.0,0.0,38,-99.99,,,-99.99,tws,2013-02-07 20:07:00,
2013-02-07 15:12:00,32.4,10.6,30.42,NNE,22,6.4,6.4,40,-99.99,,,-99.99,tws,2013-02-07 20:12:00,
2013-02-07 15:17:00,31.3,10.2,30.42,NNE,22,9.0,9.0,41,-99.99,,,-99.99,tws,2013-02-07 20:17:00,
2013-02-07 15:22:00,31.1,10.5,30.41,North,0,10.0,10.0,41,-99.99,,,-99.99,tws,2013-02-07 20:22:00,
2013-02-07 15:27:00,30.3,9.6,30.41,NNE,22,13.1,13.1,41,-99.99,,,-99.99,tws,2013-02-07 20:27:00,
2013-02-07 15:32:00,32.1,11.0,30.41,ENE,67,5.8,5.8,41,-99.99,,,-99.99,tws,2013-02-07 20:32:00,
2013-02-07 15:37:00,31.7,10.6,30.41,North,0,9.8,9.8,41,-99.99,,,-99.99,tws,2013-02-07 20:37:00,
2013-02-07 15:42:00,32.1,10.7,30.41,East,90,3.8,3.8,40,-99.99,,,-99.99,tws,2013-02-07 20:42:00,
2013-02-07 15:47:00,32.0,11.2,30.41,NNE,22,4.5,4.5,41,-99.99,,,-99.99,tws,2013-02-07 20:47:00,
2013-02-07 15:52:00,31.8,10.7,30.41,North,360,4.9,4.9,41,-99.99,,,-99.99,tws,2013-02-07 20:52:00,
2013-02-07 15:57:00,31.1,10.2,30.41,NE,45,5.1,5.1,41,-99.99,,,-99.99,tws,2013-02-07 20:57:00,
2013-02-07 16:02:00,31.5,10.9,30.41,NE,45,3.6,3.6,42,-99.99,,,-99.99,tws,2013-02-07 21:02:00,
2013-02-07 16:07:00,31.6,11.0,30.41,North,360,5.7,5.7,42,-99.99,,,-99.99,tws,2013-02-07 21:07:00,
2013-02-07 16:13:00,29.4,9.5,30.40,WNW,292,2.8,2.8,42,-99.99,,,-99.99,tws,2013-02-07 21:13:00,
2013-02-07 16:18:00,30.5,10.5,30.40,NNE,22,2.1,2.1,43,-99.99,,,-99.99,tws,2013-02-07 21:18:00,
2013-02-07 16:23:00,31.6,11.5,30.40,NNE,22,0.0,0.0,43,-99.99,,,-99.99,tws,2013-02-07 21:23:00,
2013-02-07 16:28:00,30.6,10.6,30.40,NE,45,0.1,0.1,43,-99.99,,,-99.99,tws,2013-02-07 21:28:00,
2013-02-07 16:33:00,30.7,11.0,30.40,NNE,22,0.0,0.0,43,-99.99,,,-99.99,tws,2013-02-07 21:33:00,
2013-02-07 16:38:00,29.8,10.2,30.40,North,360,0.2,0.2,43,-99.99,,,-99.99,tws,2013-02-07 21:38:00,
2013-02-07 16:43:00,29.7,10.1,30.40,North,360,0.0,0.0,43,-99.99,,,-99.99,tws,2013-02-07 21:43:00,
2013-02-07 16:48:00,29.9,11.0,30.40,NNE,22,0.0,0.0,45,-99.99,,,-99.99,tws,2013-02-07 21:48:00,
2013-02-07 16:53:00,29.3,9.9,30.40,NNE,22,3.1,3.1,43,-99.99,,,-99.99,tws,2013-02-07 21:53:00,
2013-02-07 16:58:00,29.5,10.5,30.40,North,360,1.7,1.7,44,-99.99,,,-99.99,tws,2013-02-07 21:58:00,
2013-02-07 17:03:00,28.9,10.0,30.40,West,270,3.7,3.7,44,-99.99,,,-99.99,tws,2013-02-07 22:03:00,
2013-02-07 17:08:00,29.5,10.4,30.40,North,360,0.7,0.7,44,-99.99,,,-99.99,tws,2013-02-07 22:08:00,
2013-02-07 17:13:00,29.3,10.7,30.40,North,360,1.4,1.4,45,-99.99,,,-99.99,tws,2013-02-07 22:13:00,
2013-02-07 17:18:00,29.4,10.8,30.40,North,0,0.0,0.0,45,-99.99,,,-99.99,tws,2013-02-07 22:18:00,
2013-02-07 17:23:00,29.5,11.4,30.40,North,360,1.4,1.4,46,-99.99,,,-99.99,tws,2013-02-07 22:23:00,
2013-02-07 17:28:00,29.0,10.9,30.40,North,0,1.0,1.0,46,-99.99,,,-99.99,tws,2013-02-07 22:28:00,
2013-02-07 17:33:00,29.0,10.9,30.40,NNW,337,0.2,0.2,46,-99.99,,,-99.99,tws,2013-02-07 22:33:00,
2013-02-07 17:39:00,28.9,10.5,30.40,NNW,337,0.0,0.0,45,-99.99,,,-99.99,tws,2013-02-07 22:39:00,
2013-02-07 17:44:00,29.1,10.9,30.41,North,360,0.0,0.0,46,-99.99,,,-99.99,tws,2013-02-07 22:44:00,
2013-02-07 17:49:00,28.6,10.6,30.41,North,360,0.0,0.0,46,-99.99,,,-99.99,tws,2013-02-07 22:49:00,
2013-02-07 17:54:00,29.0,11.0,30.41,NNE,22,0.4,0.4,46,-99.99,,,-99.99,tws,2013-02-07 22:54:00,
2013-02-07 17:59:00,28.3,10.6,30.41,NNE,22,0.0,0.0,47,-99.99,,,-99.99,tws,2013-02-07 22:59:00,
2013-02-07 18:04:00,29.0,11.0,30.41,NNE,22,0.2,0.2,46,-99.99,,,-99.99,tws,2013-02-07 23:04:00,
2013-02-07 18:09:00,28.6,11.1,30.41,NNE,22,1.4,1.4,47,-99.99,,,-99.99,tws,2013-02-07 23:09:00,
2013-02-07 18:14:00,28.2,10.9,30.41,NNE,22,2.0,2.0,47,-99.99,,,-99.99,tws,2013-02-07 23:14:00,
2013-02-07 18:19:00,28.2,11.2,30.41,NNE,22,2.5,2.5,48,-99.99,,,-99.99,tws,2013-02-07 23:19:00,
2013-02-07 18:24:00,27.6,11.0,30.41,NNE,22,2.4,2.4,49,-99.99,,,-99.99,tws,2013-02-07 23:24:00,
2013-02-07 18:29:00,28.2,11.6,30.42,NNE,22,0.0,0.0,49,-99.99,,,-99.99,tws,2013-02-07 23:29:00,
2013-02-07 18:34:00,28.0,11.3,30.42,NNE,22,0.2,0.2,49,-99.99,,,-99.99,tws,2013-02-07 23:34:00,
2013-02-07 18:39:00,27.4,10.8,30.41,NNE,22,2.2,2.2,49,-99.99,,,-99.99,tws,2013-02-07 23:39:00,
2013-02-07 18:44:00,27.5,11.3,30.42,East,90,1.0,1.0,50,-99.99,,,-99.99,tws,2013-02-07 23:44:00,
2013-02-07 18:49:00,27.2,11.6,30.42,NE,45,0.4,0.4,51,-99.99,,,-99.99,tws,2013-02-07 23:49:00,
2013-02-07 18:54:00,27.5,11.9,30.41,ENE,67,0.0,0.0,51,-99.99,,,-99.99,tws,2013-02-07 23:54:00,
2013-02-07 18:59:00,27.0,11.8,30.41,ENE,67,0.0,0.0,52,-99.99,,,-99.99,tws,2013-02-07 23:59:00,
2013-02-07 19:04:00,26.3,11.2,30.41,ENE,67,3.9,3.9,52,-99.99,,,-99.99,tws,2013-02-08 00:04:00,
2013-02-07 19:09:00,25.6,10.6,30.41,ENE,67,4.8,4.8,52,-99.99,,,-99.99,tws,2013-02-08 00:09:00,
2013-02-07 19:14:00,26.1,11.1,30.41,East,90,2.3,2.3,52,-99.99,,,-99.99,tws,2013-02-08 00:14:00,
2013-02-07 19:19:00,25.5,10.9,30.41,NE,45,4.1,4.1,53,-99.99,,,-99.99,tws,2013-02-08 00:19:00,
2013-02-07 19:24:00,25.0,10.4,30.41,NE,45,3.7,3.7,53,-99.99,,,-99.99,tws,2013-02-08 00:24:00,
2013-02-07 19:29:00,25.6,11.2,30.41,ENE,67,0.0,0.0,54,-99.99,,,-99.99,tws,2013-02-08 00:29:00,
2013-02-07 19:34:00,25.5,10.8,30.41,East,90,0.4,0.4,53,-99.99,,,-99.99,tws,2013-02-08 00:34:00,
2013-02-07 19:39:00,26.1,11.6,30.41,East,90,0.0,0.0,54,-99.99,,,-99.99,tws,2013-02-08 00:39:00,
2013-02-07 19:44:00,25.8,10.9,30.40,East,90,0.0,0.0,52,-99.99,,,-99.99,tws,2013-02-08 00:44:00,
2013-02-07 19:49:00,25.4,11.1,30.41,East,90,0.0,0.0,54,-99.99,,,-99.99,tws,2013-02-08 00:49:00,
2013-02-07 19:54:00,24.6,9.8,30.41,NNE,22,0.0,0.0,52,-99.99,,,-99.99,tws,2013-02-08 00:54:00,
2013-02-07 19:59:00,24.7,9.9,30.42,NNW,337,0.0,0.0,52,-99.99,,,-99.99,tws,2013-02-08 00:59:00,
2013-02-07 20:04:00,24.4,10.0,30.42,NNW,337,0.0,0.0,53,-99.99,,,-99.99,tws,2013-02-08 01:04:00,
2013-02-07 20:09:00,25.7,11.3,30.41,NNE,22,0.0,0.0,54,-99.99,,,-99.99,tws,2013-02-08 01:09:00,
2013-02-07 20:14:00,25.4,11.7,30.41,NE,45,0.0,0.0,55,-99.99,,,-99.99,tws,2013-02-08 01:14:00,
2013-02-07 20:19:00,26.1,11.5,30.41,NE,45,0.0,0.0,53,-99.99,,,-99.99,tws,2013-02-08 01:19:00,
2013-02-07 20:24:00,23.7,10.1,30.41,North,360,0.0,0.0,55,-99.99,,,-99.99,tws,2013-02-08 01:24:00,
2013-02-07 20:29:00,23.5,9.5,30.41,NW,315,0.0,0.0,54,-99.99,,,-99.99,tws,2013-02-08 01:29:00,
2013-02-07 20:34:00,24.5,9.9,30.41,NNW,337,0.0,0.0,53,-99.99,,,-99.99,tws,2013-02-08 01:34:00,
2013-02-07 20:39:00,24.3,9.9,30.41,North,360,0.3,0.3,53,-99.99,,,-99.99,tws,2013-02-08 01:39:00,
2013-02-07 20:44:00,25.2,10.7,30.42,NNW,337,0.0,0.0,54,-99.99,,,-99.99,tws,2013-02-08 01:44:00,
2013-02-07 20:49:00,24.4,10.7,30.41,NNW,337,0.0,0.0,55,-99.99,,,-99.99,tws,2013-02-08 01:49:00,
2013-02-07 20:54:00,23.1,10.1,30.41,NNW,337,0.0,0.0,57,-99.99,,,-99.99,tws,2013-02-08 01:54:00,
2013-02-07 20:59:00,23.2,10.2,30.41,NW,315,0.0,0.0,57,-99.99,,,-99.99,tws,2013-02-08 01:59:00,
2013-02-07 21:04:00,24.5,11.3,30.41,NW,315,0.0,0.0,57,-99.99,,,-99.99,tws,2013-02-08 02:04:00,
2013-02-07 21:09:00,24.9,11.7,30.41,NW,315,0.0,0.0,56,-99.99,,,-99.99,tws,2013-02-08 02:09:00,
2013-02-07 21:14:00,24.3,11.4,30.41,NW,315,0.0,0.0,57,-99.99,,,-99.99,tws,2013-02-08 02:14:00,
2013-02-07 21:19:00,25.3,12.2,30.41,NW,315,0.0,0.0,57,-99.99,,,-99.99,tws,2013-02-08 02:19:00,
2013-02-07 21:24:00,24.1,11.6,30.41,NW,315,0.0,0.0,58,-99.99,,,-99.99,tws,2013-02-08 02:24:00,
2013-02-07 21:29:00,23.9,11.1,30.41,NW,315,0.0,0.0,57,-99.99,,,-99.99,tws,2013-02-08 02:29:00,
2013-02-07 21:34:00,24.1,12.6,30.41,NW,315,0.0,0.0,61,-99.99,,,-99.99,tws,2013-02-08 02:34:00,
2013-02-07 21:39:00,23.8,12.3,30.41,SSE,157,0.0,0.0,61,-99.99,,,-99.99,tws,2013-02-08 02:39:00,
2013-02-07 21:44:00,24.1,12.7,30.41,SSE,157,0.0,0.0,61,-99.99,,,-99.99,tws,2013-02-08 02:44:00,
2013-02-07 21:49:00,24.4,12.1,30.41,South,180,0.0,0.0,59,-99.99,,,-99.99,tws,2013-02-08 02:49:00,
2013-02-07 21:54:00,24.1,12.0,30.41,SSE,157,2.3,2.3,59,-99.99,,,-99.99,tws,2013-02-08 02:54:00,
2013-02-07 21:59:00,24.9,13.1,30.41,South,180,0.3,0.3,60,-99.99,,,-99.99,tws,2013-02-08 02:59:00,
2013-02-07 22:04:00,24.9,13.7,30.40,SSE,157,0.0,0.0,62,-99.99,,,-99.99,tws,2013-02-08 03:04:00,
2013-02-07 22:09:00,24.3,13.7,30.40,SE,135,0.0,0.0,63,-99.99,,,-99.99,tws,2013-02-08 03:09:00,
2013-02-07 22:14:00,24.8,14.0,30.40,SSE,157,0.0,0.0,63,-99.99,,,-99.99,tws,2013-02-08 03:14:00,
2013-02-07 22:19:00,25.2,13.4,30.40,SSE,157,1.0,1.0,60,-99.99,,,-99.99,tws,2013-02-08 03:19:00,
2013-02-07 22:24:00,24.9,13.6,30.40,South,180,0.9,0.9,61,-99.99,,,-99.99,tws,2013-02-08 03:24:00,
2013-02-07 22:29:00,25.2,13.7,30.40,South,180,0.9,0.9,61,-99.99,,,-99.99,tws,2013-02-08 03:29:00,
2013-02-07 22:34:00,25.3,13.9,30.39,SSE,157,2.8,2.8,61,-99.99,,,-99.99,tws,2013-02-08 03:34:00,
2013-02-07 22:39:00,25.6,14.0,30.39,SSW,202,0.9,0.9,61,-99.99,,,-99.99,tws,2013-02-08 03:39:00,
2013-02-07 22:44:00,25.7,13.8,30.39,South,180,3.0,3.0,60,-99.99,,,-99.99,tws,2013-02-08 03:44:00,
2013-02-07 22:49:00,26.1,13.8,30.39,SSE,157,0.0,0.0,59,-99.99,,,-99.99,tws,2013-02-08 03:49:00,
2013-02-07 22:54:00,26.3,14.4,30.39,SE,135,0.0,0.0,60,-99.99,,,-99.99,tws,2013-02-08 03:54:00,
2013-02-07 22:59:00,26.0,14.5,30.38,SE,135,1.4,1.4,61,-99.99,,,-99.99,tws,2013-02-08 03:59:00,
2013-02-07 23:04:00,26.0,13.4,30.39,South,180,2.5,2.5,58,-99.99,,,-99.99,tws,2013-02-08 04:04:00,
2013-02-07 23:09:00,26.4,13.7,30.39,South,180,1.0,1.0,58,-99.99,,,-99.99,tws,2013-02-08 04:09:00,
2013-02-07 23:14:00,26.0,13.5,30.38,SW,225,1.5,1.5,58,-99.99,,,-99.99,tws,2013-02-08 04:14:00,
2013-02-07 23:19:00,26.1,13.4,30.38,South,180,2.0,2.0,58,-99.99,,,-99.99,tws,2013-02-08 04:19:00,
2013-02-07 23:24:00,26.4,14.1,30.38,SSW,202,0.1,0.1,59,-99.99,,,-99.99,tws,2013-02-08 04:24:00,
2013-02-07 23:29:00,26.5,13.7,30.39,South,180,0.9,0.9,58,-99.99,,,-99.99,tws,2013-02-08 04:29:00,
2013-02-07 23:34:00,26.2,14.2,30.39,SSW,202,1.1,1.1,60,-99.99,,,-99.99,tws,2013-02-08 04:34:00,
2013-02-07 23:39:00,27.4,14.5,30.37,SSW,202,0.0,0.0,57,-99.99,,,-99.99,tws,2013-02-08 04:39:00,
2013-02-07 23:44:00,27.6,14.6,30.37,SSW,202,0.0,0.0,57,-99.99,,,-99.99,tws,2013-02-08 04:44:00,
2013-02-07 23:49:00,27.5,14.8,30.36,SSW,202,0.0,0.0,58,-99.99,,,-99.99,tws,2013-02-08 04:49:00,
2013-02-07 23:54:00,26.6,15.2,30.36,SSW,202,0.0,0.0,61,-99.99,,,-99.99,tws,2013-02-08 04:54:00,
2013-02-07 23:59:00,26.7,14.1,30.36,SSW,202,0.0,0.0,58,-99.99,,,-99.99,tws,2013-02-08 04:59:00,